createdAt,value
2023-02-03T00:01:11.720Z,12.00
2023-02-03T00:03:40.990Z,9.00
2023-02-03T00:06:09.614Z,11.80
2023-02-03T00:08:39.981Z,10.67
2023-02-03T00:11:09.155Z,9.13
2023-02-03T00:13:38.061Z,15.10
2023-02-03T00:16:07.876Z,4.40
2023-02-03T00:18:39.605Z,15.43
2023-02-03T00:21:08.647Z,8.10
2023-02-03T00:23:37.345Z,7.47
2023-02-03T00:26:09.862Z,10.17
2023-02-03T00:28:38.419Z,10.63
2023-02-03T00:31:07.571Z,12.60
2023-02-03T00:33:39.213Z,8.77
2023-02-03T00:36:08.232Z,19.03
2023-02-03T00:38:36.879Z,11.60
2023-02-03T00:41:05.676Z,11.10
2023-02-03T00:43:34.185Z,10.77
2023-02-03T00:46:02.630Z,12.30
2023-02-03T00:48:31.559Z,10.13
2023-02-03T00:51:01.474Z,8.67
2023-02-03T00:53:29.993Z,8.07
2023-02-03T00:55:58.496Z,16.10
2023-02-03T00:58:26.901Z,12.50
2023-02-03T01:00:59.004Z,16.30
2023-02-03T01:03:27.369Z,15.60
2023-02-03T01:05:55.637Z,15.63
2023-02-03T01:08:25.353Z,11.83
2023-02-03T01:10:53.719Z,14.17
2023-02-03T01:13:21.999Z,15.57
2023-02-03T01:15:50.194Z,17.93
2023-02-03T01:18:18.447Z,16.17
2023-02-03T01:20:46.729Z,19.33
2023-02-03T01:23:14.995Z,16.90
2023-02-03T01:25:44.842Z,18.57
2023-02-03T01:28:13.814Z,13.03
2023-02-03T01:30:42.151Z,12.77
2023-02-03T01:33:10.159Z,16.30
2023-02-03T01:35:38.339Z,20.63
2023-02-03T01:38:06.587Z,16.83
2023-02-03T01:40:34.903Z,19.30
2023-02-03T01:43:04.584Z,17.93
2023-02-03T01:45:32.905Z,19.27
2023-02-03T01:48:01.952Z,17.50
2023-02-03T01:50:35.409Z,22.27
2023-02-03T01:53:07.941Z,19.13
2023-02-03T01:55:41.182Z,20.33
2023-02-03T01:58:13.299Z,21.17
2023-02-03T02:00:42.167Z,18.33
2023-02-03T02:03:11.276Z,17.07
2023-02-03T02:05:44.529Z,21.83
2023-02-03T02:08:15.215Z,19.17
2023-02-03T02:10:44.328Z,17.63
2023-02-03T02:13:15.140Z,14.77
2023-02-03T02:15:52.484Z,19.77
2023-02-03T02:18:31.184Z,22.90
2023-02-03T02:21:24.650Z,16.37
2023-02-03T02:24:33.120Z,21.53
2023-02-03T02:27:20.224Z,17.33
2023-02-03T02:30:23.965Z,23.03
2023-02-03T02:33:04.165Z,20.27
2023-02-03T02:35:45.899Z,18.50
2023-02-03T02:38:24.893Z,19.33
2023-02-03T02:41:01.423Z,15.67
2023-02-03T02:43:37.075Z,16.00
2023-02-03T02:46:14.821Z,14.67
2023-02-03T02:48:51.168Z,14.13
2023-02-03T02:51:21.776Z,10.07
2023-02-03T02:53:55.624Z,14.63
2023-02-03T02:56:26.985Z,14.90
2023-02-03T02:58:57.716Z,14.23
2023-02-03T03:01:26.265Z,13.07
2023-02-03T03:04:04.914Z,12.23
2023-02-03T03:06:37.811Z,13.93
2023-02-03T03:09:09.897Z,11.13
2023-02-03T03:11:37.012Z,13.37
2023-02-03T03:14:07.760Z,12.80
2023-02-03T03:16:39.170Z,13.97
2023-02-03T03:19:14.917Z,10.57
2023-02-03T03:21:48.557Z,12.60
2023-02-03T03:24:21.779Z,9.67
2023-02-03T03:26:54.849Z,9.83
2023-02-03T03:29:27.986Z,9.37
2023-02-03T03:31:57.156Z,10.43
2023-02-03T03:34:27.021Z,8.53
2023-02-03T03:37:04.204Z,8.40
2023-02-03T03:39:41.594Z,8.83
2023-02-03T03:42:14.288Z,8.63
2023-02-03T03:44:52.337Z,10.97
2023-02-03T03:47:26.191Z,6.80
2023-02-03T03:49:59.173Z,5.67
2023-02-03T03:52:32.666Z,8.03
2023-02-03T03:55:03.507Z,11.93
2023-02-03T03:57:36.835Z,8.03
2023-02-03T04:00:10.678Z,9.70
2023-02-03T04:02:41.121Z,7.53
2023-02-03T04:05:13.852Z,9.60
2023-02-03T04:07:44.568Z,7.30
2023-02-03T04:10:22.596Z,8.83
2023-02-03T04:12:51.157Z,5.47
2023-02-03T04:15:19.634Z,9.70
2023-02-03T04:17:47.980Z,10.37
2023-02-03T04:20:18.250Z,10.93
2023-02-03T04:22:46.730Z,12.77
2023-02-03T04:25:15.077Z,12.10
2023-02-03T04:27:43.518Z,11.57
2023-02-03T04:30:14.139Z,13.33
2023-02-03T04:32:42.738Z,15.70
2023-02-03T04:35:11.212Z,13.43
2023-02-03T04:37:41.541Z,15.87
2023-02-03T04:40:11.288Z,18.37
2023-02-03T04:42:40.963Z,17.40
2023-02-03T04:45:12.351Z,19.37
2023-02-03T04:47:41.280Z,23.93
2023-02-03T04:50:10.490Z,32.90
2023-02-03T04:52:40.575Z,29.70
2023-02-03T04:55:10.106Z,31.77
2023-02-03T04:57:38.677Z,27.00
2023-02-03T05:00:09.084Z,27.03
2023-02-03T05:02:37.547Z,36.93
2023-02-03T05:05:06.572Z,31.40
2023-02-03T05:07:34.955Z,42.50
2023-02-03T05:10:04.543Z,33.80
2023-02-03T05:12:32.653Z,30.53
2023-02-03T05:15:00.635Z,42.43
2023-02-03T05:17:28.659Z,51.60
2023-02-03T05:19:56.708Z,48.43
2023-02-03T05:22:24.842Z,50.20
2023-02-03T05:24:52.876Z,61.70
2023-02-03T05:27:22.362Z,84.30
2023-02-03T05:29:50.359Z,62.37
2023-02-03T05:32:18.384Z,73.23
2023-02-03T05:34:46.440Z,91.10
2023-02-03T05:37:14.500Z,106.07
2023-02-03T05:39:42.497Z,83.40
2023-02-03T05:42:09.515Z,126.03
2023-02-03T05:44:38.953Z,102.07
2023-02-03T05:47:06.922Z,107.90
2023-02-03T05:49:35.080Z,98.90
2023-02-03T05:52:03.412Z,86.63
2023-02-03T05:54:31.668Z,113.63
2023-02-03T05:56:59.835Z,100.93
2023-02-03T05:59:27.945Z,130.57
2023-02-03T06:01:57.375Z,97.73
2023-02-03T06:04:25.459Z,104.90
2023-02-03T06:06:53.541Z,101.70
2023-02-03T06:09:21.608Z,100.63
2023-02-03T06:11:49.733Z,104.77
2023-02-03T06:14:17.826Z,89.20
2023-02-03T06:16:45.943Z,117.57
2023-02-03T06:19:16.474Z,82.43
2023-02-03T06:21:44.673Z,92.90
2023-02-03T06:24:12.862Z,85.43
2023-02-03T06:26:40.933Z,82.73
2023-02-03T06:29:08.936Z,92.30
2023-02-03T06:31:37.116Z,98.30
2023-02-03T06:34:05.304Z,102.93
2023-02-03T06:36:34.653Z,97.70
2023-02-03T06:39:02.727Z,81.77
2023-02-03T06:41:31.227Z,106.83
2023-02-03T06:43:59.402Z,88.43
2023-02-03T06:46:30.133Z,105.57
2023-02-03T06:48:58.371Z,110.10
2023-02-03T06:51:26.716Z,85.53
2023-02-03T06:53:56.180Z,92.07
2023-02-03T06:56:24.295Z,86.87
2023-02-03T06:58:52.477Z,94.27
2023-02-03T07:01:20.688Z,95.80
2023-02-03T07:03:48.999Z,94.80
2023-02-03T07:06:17.345Z,86.10
2023-02-03T07:08:45.452Z,67.43
2023-02-03T07:11:15.111Z,77.80
2023-02-03T07:13:43.195Z,88.27
2023-02-03T07:16:11.303Z,80.90
2023-02-03T07:18:48.103Z,95.63
2023-02-03T07:21:17.622Z,89.43
2023-02-03T07:23:48.149Z,66.87
2023-02-03T07:26:18.849Z,81.13
2023-02-03T07:28:47.083Z,75.73
2023-02-03T07:31:15.336Z,88.77
2023-02-03T07:33:43.677Z,67.60
2023-02-03T07:36:12.556Z,58.00
2023-02-03T07:38:40.676Z,74.40
2023-02-03T07:41:08.926Z,61.80
2023-02-03T07:43:38.418Z,59.07
2023-02-03T07:46:06.693Z,66.37
2023-02-03T07:48:34.966Z,69.47
2023-02-03T07:51:03.143Z,52.70
2023-02-03T07:53:32.128Z,62.60
2023-02-03T07:56:02.095Z,67.17
2023-02-03T07:58:30.615Z,56.17
2023-02-03T08:01:00.671Z,50.77
2023-02-03T08:03:28.750Z,45.87
2023-02-03T08:05:58.358Z,54.90
2023-02-03T08:08:26.448Z,47.83
2023-02-03T08:10:57.108Z,48.60
2023-02-03T08:13:25.304Z,58.23
2023-02-03T08:15:53.801Z,63.83
2023-02-03T08:18:23.661Z,49.73
2023-02-03T08:20:51.788Z,43.63
2023-02-03T08:23:19.870Z,42.67
2023-02-03T08:25:52.071Z,45.07
2023-02-03T08:28:20.359Z,40.27
2023-02-03T08:30:48.723Z,39.20
2023-02-03T08:33:16.878Z,35.80
2023-02-03T08:35:48.605Z,37.53
2023-02-03T08:38:17.475Z,37.97
2023-02-03T08:40:45.754Z,31.37
2023-02-03T08:43:13.841Z,31.80
2023-02-03T08:45:41.942Z,29.60
2023-02-03T08:48:10.187Z,29.53
2023-02-03T08:50:38.273Z,33.17
2023-02-03T08:53:07.756Z,31.13
2023-02-03T08:55:35.848Z,33.73
2023-02-03T08:58:03.907Z,26.53
2023-02-03T09:00:32.049Z,32.03
2023-02-03T09:03:00.166Z,34.73
2023-02-03T09:05:28.398Z,30.63
2023-02-03T09:07:56.586Z,28.60
2023-02-03T09:10:26.687Z,30.20
2023-02-03T09:12:54.961Z,27.93
2023-02-03T09:15:23.009Z,27.13
2023-02-03T09:17:51.106Z,23.70
2023-02-03T09:20:19.445Z,24.67
2023-02-03T09:22:47.456Z,25.50
2023-02-03T09:25:16.339Z,24.73
2023-02-03T09:27:45.839Z,21.57
2023-02-03T09:30:15.046Z,23.80
2023-02-03T09:32:43.217Z,21.67
2023-02-03T09:35:11.835Z,22.43
2023-02-03T09:37:39.959Z,19.47
2023-02-03T09:40:11.316Z,26.10
2023-02-03T09:43:03.285Z,27.40
2023-02-03T09:45:32.908Z,25.60
2023-02-03T09:48:07.412Z,21.47
2023-02-03T09:50:37.948Z,21.53
2023-02-03T09:53:13.651Z,25.70
2023-02-03T09:55:46.225Z,19.23
2023-02-03T09:58:18.354Z,17.57
2023-02-03T10:00:50.413Z,19.33
2023-02-03T10:03:30.440Z,15.80
2023-02-03T10:06:21.587Z,19.20
2023-02-03T10:09:17.325Z,26.03
2023-02-03T10:12:10.305Z,22.00
2023-02-03T10:14:53.875Z,17.30
2023-02-03T10:17:31.105Z,17.87
2023-02-03T10:20:05.885Z,15.17
2023-02-03T10:22:39.220Z,13.97
2023-02-03T10:25:17.086Z,13.57
2023-02-03T10:27:45.494Z,11.93
2023-02-03T10:30:21.841Z,17.63
2023-02-03T10:32:53.225Z,13.43
2023-02-03T10:35:27.235Z,15.20
2023-02-03T10:37:59.958Z,13.97
2023-02-03T10:40:30.784Z,13.73
2023-02-03T10:43:17.406Z,13.97
2023-02-03T10:45:46.869Z,14.97
2023-02-03T10:48:19.001Z,14.40
2023-02-03T10:50:51.120Z,17.33
2023-02-03T10:53:24.864Z,10.30
2023-02-03T10:56:02.450Z,8.77
2023-02-03T10:58:33.450Z,9.27
2023-02-03T11:01:10.996Z,6.60
2023-02-03T11:03:42.278Z,4.37
2023-02-03T11:06:13.097Z,11.77
2023-02-03T11:08:42.616Z,13.80
2023-02-03T11:11:15.436Z,10.33
2023-02-03T11:13:43.470Z,14.63
2023-02-03T11:16:17.329Z,6.37
2023-02-03T11:18:52.419Z,13.40
2023-02-03T11:21:23.088Z,14.27
2023-02-03T11:23:57.899Z,12.03
2023-02-03T11:26:29.841Z,20.20
2023-02-03T11:29:01.560Z,17.57
2023-02-03T11:31:34.069Z,22.97
2023-02-03T11:34:05.936Z,26.50
2023-02-03T11:36:35.957Z,33.57
2023-02-03T11:39:21.983Z,24.47
2023-02-03T11:41:50.452Z,37.53
2023-02-03T11:44:21.822Z,30.80
2023-02-03T11:46:56.183Z,27.90
2023-02-03T11:50:00.776Z,27.30
2023-02-03T11:53:10.673Z,27.67
2023-02-03T11:55:49.165Z,29.57
2023-02-03T11:58:57.532Z,37.10
2023-02-03T12:01:45.838Z,28.77
2023-02-03T12:04:51.732Z,30.80
2023-02-03T12:07:44.825Z,42.07
2023-02-03T12:10:29.149Z,25.90
2023-02-03T12:13:04.407Z,42.00
2023-02-03T12:15:50.297Z,37.63
2023-02-03T12:18:30.891Z,24.50
2023-02-03T12:21:13.653Z,22.97
2023-02-03T12:23:54.958Z,26.50
2023-02-03T12:26:26.252Z,31.77
2023-02-03T12:29:03.880Z,29.57
2023-02-03T12:31:37.973Z,34.57
2023-02-03T12:34:16.889Z,49.13
2023-02-03T12:36:53.443Z,32.50
2023-02-03T12:39:28.330Z,36.03
2023-02-03T12:41:59.557Z,33.67
2023-02-03T12:44:33.829Z,23.10
2023-02-03T12:47:06.105Z,39.83
2023-02-03T12:49:42.586Z,34.07
2023-02-03T12:52:21.456Z,29.83
2023-02-03T12:54:58.377Z,28.47
2023-02-03T12:57:30.493Z,28.47
2023-02-03T13:00:21.717Z,40.97
2023-02-03T13:03:01.795Z,27.17
2023-02-03T13:05:40.249Z,23.77
2023-02-03T13:08:17.636Z,28.20
2023-02-03T13:10:50.603Z,27.90
2023-02-03T13:13:27.180Z,26.30
2023-02-03T13:15:56.475Z,28.37
2023-02-03T13:18:30.848Z,31.10
2023-02-03T13:20:59.316Z,30.37
2023-02-03T13:23:29.166Z,18.93
2023-02-03T13:26:17.502Z,25.97
2023-02-03T13:29:10.606Z,23.87
2023-02-03T13:31:48.673Z,28.70
2023-02-03T13:34:41.206Z,20.57
2023-02-03T13:37:42.615Z,19.23
2023-02-03T13:40:23.972Z,30.07
2023-02-03T13:42:56.622Z,15.17
2023-02-03T13:45:29.815Z,26.03
2023-02-03T13:48:02.813Z,26.03
2023-02-03T13:50:32.219Z,19.80
2023-02-03T13:53:04.331Z,23.23
2023-02-03T13:55:40.353Z,26.67
2023-02-03T13:58:21.455Z,29.00
2023-02-03T14:01:21.836Z,32.53
2023-02-03T14:03:50.137Z,22.17
2023-02-03T14:07:01.053Z,36.23
2023-02-03T14:09:40.275Z,32.63
2023-02-03T14:12:35.648Z,29.73
2023-02-03T14:15:23.163Z,32.50
2023-02-03T14:18:00.266Z,43.00
2023-02-03T14:20:53.234Z,42.03
2023-02-03T14:23:30.684Z,36.63
2023-02-03T14:26:01.071Z,35.27
2023-02-03T14:28:40.304Z,27.03
2023-02-03T14:31:16.639Z,30.90
2023-02-03T14:33:57.300Z,32.37
2023-02-03T14:36:31.973Z,48.03
2023-02-03T14:39:03.490Z,36.97
2023-02-03T14:41:46.275Z,41.00
2023-02-03T14:44:27.554Z,42.23
2023-02-03T14:47:10.187Z,36.37
2023-02-03T14:49:53.524Z,39.93
2023-02-03T14:52:38.637Z,56.63
2023-02-03T14:55:28.917Z,45.23
2023-02-03T14:58:01.498Z,43.30
2023-02-03T15:00:34.226Z,48.00
2023-02-03T15:03:30.283Z,41.30
2023-02-03T15:06:02.509Z,32.67
2023-02-03T15:08:48.559Z,40.27
2023-02-03T15:11:31.023Z,41.00
2023-02-03T15:14:19.724Z,34.27
2023-02-03T15:16:54.300Z,31.53
2023-02-03T15:19:27.120Z,32.03
2023-02-03T15:21:55.524Z,39.27
2023-02-03T15:24:25.936Z,38.53
2023-02-03T15:26:56.159Z,32.10
2023-02-03T15:29:29.583Z,39.43
2023-02-03T15:32:08.924Z,33.47
2023-02-03T15:34:41.009Z,23.57
2023-02-03T15:37:15.207Z,23.97
2023-02-03T15:39:50.777Z,28.60
2023-02-03T15:42:31.609Z,30.30
2023-02-03T15:45:04.213Z,32.83
2023-02-03T15:47:37.116Z,27.23
2023-02-03T15:50:21.057Z,32.30
2023-02-03T15:52:53.882Z,26.33
2023-02-03T15:55:31.646Z,27.90
2023-02-03T15:58:00.499Z,27.93
2023-02-03T16:00:38.303Z,24.50
2023-02-03T16:03:19.731Z,28.20
2023-02-03T16:05:50.415Z,24.63
2023-02-03T16:08:29.775Z,18.63
2023-02-03T16:10:59.757Z,23.33
2023-02-03T16:13:29.768Z,26.17
2023-02-03T16:16:09.667Z,27.83
2023-02-03T16:18:39.697Z,21.13
2023-02-03T16:21:08.433Z,18.37
2023-02-03T16:23:36.839Z,24.00
2023-02-03T16:26:08.267Z,20.17
2023-02-03T16:28:53.954Z,18.63
2023-02-03T16:31:41.098Z,17.67
2023-02-03T16:34:35.238Z,28.00
2023-02-03T16:37:29.596Z,26.43
2023-02-03T16:40:15.587Z,20.93
2023-02-03T16:43:02.139Z,24.37
2023-02-03T16:45:48.771Z,27.23
2023-02-03T16:48:34.941Z,23.13
2023-02-03T16:51:07.967Z,27.13
2023-02-03T16:53:36.584Z,27.13
2023-02-03T16:56:06.175Z,25.70
2023-02-03T16:58:34.829Z,33.13
2023-02-03T17:01:06.220Z,28.03
2023-02-03T17:03:36.585Z,21.50
2023-02-03T17:06:09.516Z,27.07
2023-02-03T17:08:39.535Z,19.63
2023-02-03T17:11:09.616Z,31.23
2023-02-03T17:13:38.295Z,20.80
2023-02-03T17:16:12.958Z,28.07
2023-02-03T17:18:41.835Z,23.77
2023-02-03T17:21:15.387Z,29.60
2023-02-03T17:23:44.207Z,24.47
2023-02-03T17:26:12.895Z,26.17
2023-02-03T17:28:43.220Z,17.70
2023-02-03T17:31:14.994Z,24.77
2023-02-03T17:33:43.654Z,22.00
2023-02-03T17:36:16.059Z,24.70
2023-02-03T17:55:23.299Z,31.33
2023-02-03T17:57:51.637Z,23.23
2023-02-03T18:00:20.326Z,18.90
2023-02-03T18:02:51.811Z,23.90
2023-02-03T18:05:20.238Z,20.03
2023-02-03T18:07:50.133Z,21.90
2023-02-03T18:10:18.867Z,28.10
2023-02-03T18:12:47.265Z,21.90
2023-02-03T18:15:15.623Z,20.27
2023-02-03T18:17:43.821Z,19.23
2023-02-03T18:20:13.594Z,28.23
2023-02-03T18:22:42.106Z,27.27
2023-02-03T18:25:12.695Z,23.63
2023-02-03T18:27:41.159Z,26.20
2023-02-03T18:30:11.706Z,16.97
2023-02-03T18:32:40.106Z,22.27
2023-02-03T18:35:13.056Z,21.23
2023-02-03T18:37:41.263Z,22.47
2023-02-03T18:40:11.858Z,21.33
2023-02-03T18:42:40.232Z,20.77
2023-02-03T18:45:09.193Z,19.17
2023-02-03T18:47:37.681Z,21.07
2023-02-03T18:50:06.881Z,22.50
2023-02-03T18:52:35.433Z,19.23
2023-02-03T18:55:04.053Z,18.50
2023-02-03T18:57:34.059Z,23.87
2023-02-03T19:00:02.475Z,20.80
2023-02-03T19:02:31.487Z,23.73
2023-02-03T19:05:00.155Z,28.73
2023-02-03T19:07:28.518Z,21.27
2023-02-03T19:09:57.012Z,19.00
2023-02-03T19:12:26.433Z,17.00
2023-02-03T19:14:56.168Z,17.93
2023-02-03T19:17:24.583Z,18.83
2023-02-03T19:19:53.413Z,20.53
2023-02-03T19:22:21.921Z,22.57
2023-02-03T19:24:50.277Z,12.67
2023-02-03T19:27:18.640Z,15.57
2023-02-03T19:29:47.027Z,16.03
2023-02-03T19:32:16.900Z,24.37
2023-02-03T19:34:45.225Z,16.23
2023-02-03T19:37:13.551Z,17.10
2023-02-03T19:39:42.053Z,19.77
2023-02-03T19:42:11.803Z,16.07
2023-02-03T19:44:40.964Z,11.93
2023-02-03T19:47:09.366Z,18.57
2023-02-03T19:49:39.056Z,18.77
2023-02-03T19:52:09.059Z,19.07
2023-02-03T19:54:37.521Z,15.60
2023-02-03T19:57:05.978Z,19.70
2023-02-03T19:59:34.664Z,22.53
2023-02-03T20:02:13.476Z,15.73
2023-02-03T20:04:44.523Z,17.70
2023-02-03T20:07:13.486Z,15.97
2023-02-03T20:09:41.943Z,15.57
2023-02-03T20:12:10.322Z,16.60
2023-02-03T20:14:38.733Z,9.83
2023-02-03T20:17:07.664Z,11.73
2023-02-03T20:19:35.953Z,15.47
2023-02-03T20:22:05.682Z,10.13
2023-02-03T20:24:33.836Z,12.90
2023-02-03T20:27:02.225Z,9.47
2023-02-03T20:29:30.528Z,11.73
2023-02-03T20:31:58.804Z,12.97
2023-02-03T20:34:28.537Z,12.90
2023-02-03T20:36:58.540Z,8.93
2023-02-03T20:39:28.970Z,14.03
2023-02-03T20:41:57.287Z,11.20
2023-02-03T20:44:26.592Z,8.90
2023-02-03T20:46:56.012Z,11.83
2023-02-03T20:49:26.077Z,10.13
2023-02-03T20:51:54.468Z,10.63
2023-02-03T20:54:23.971Z,12.70
2023-02-03T20:56:53.881Z,13.93
2023-02-03T20:59:22.721Z,6.47
2023-02-03T21:01:51.240Z,8.57
2023-02-03T21:04:38.434Z,17.07
2023-02-03T21:07:15.614Z,11.07
2023-02-03T21:09:44.160Z,11.00
2023-02-03T21:12:15.152Z,9.73
2023-02-03T21:14:45.060Z,11.77
2023-02-03T21:17:18.875Z,5.60
2023-02-03T21:19:47.384Z,8.50
2023-02-03T21:22:19.230Z,6.93
2023-02-03T21:24:50.863Z,4.63
2023-02-03T21:27:29.446Z,5.87
2023-02-03T21:29:58.497Z,2.67
2023-02-03T21:32:32.969Z,2.93
2023-02-03T21:35:01.036Z,1.50
2023-02-03T21:37:42.493Z,2.33
2023-02-03T21:40:24.103Z,2.23
2023-02-03T21:42:54.203Z,2.37
2023-02-03T21:45:30.778Z,3.53
2023-02-03T21:48:00.073Z,4.07
2023-02-03T21:50:29.846Z,2.43
2023-02-03T21:52:58.663Z,3.47
2023-02-03T21:55:26.739Z,2.50
2023-02-03T21:57:56.308Z,1.50
2023-02-03T22:00:42.893Z,1.50
2023-02-03T22:03:20.393Z,3.93
2023-02-03T22:05:48.778Z,5.43
2023-02-03T22:08:22.477Z,2.13
2023-02-03T22:10:50.847Z,2.77
2023-02-03T22:13:20.875Z,2.77
2023-02-03T22:15:50.369Z,1.70
2023-02-03T22:18:18.427Z,2.60
2023-02-03T22:20:46.473Z,2.20
2023-02-03T22:23:14.568Z,3.07
2023-02-03T22:25:42.729Z,2.20
2023-02-03T22:28:10.853Z,2.03
2023-02-03T22:30:40.334Z,1.87
2023-02-03T22:33:08.399Z,4.10
2023-02-03T22:35:36.594Z,3.67
2023-02-03T22:38:04.628Z,2.23
2023-02-03T22:40:32.954Z,2.93
2023-02-03T22:43:01.172Z,2.40
2023-02-03T22:45:29.367Z,3.23
2023-02-03T22:48:00.376Z,5.07
2023-02-03T22:50:35.533Z,3.07
2023-02-03T22:53:04.667Z,4.73
2023-02-03T22:55:33.141Z,3.03
2023-02-03T22:58:01.288Z,4.07
2023-02-03T23:00:29.832Z,4.63
2023-02-03T23:02:59.427Z,3.47
2023-02-03T23:05:27.718Z,3.47
2023-02-03T23:07:55.769Z,4.97
2023-02-03T23:10:25.618Z,4.80
2023-02-03T23:12:53.988Z,6.23
2023-02-03T23:15:22.080Z,2.67
2023-02-03T23:17:50.226Z,5.33
2023-02-03T23:20:20.227Z,2.70
2023-02-03T23:22:48.994Z,4.50
2023-02-03T23:25:17.137Z,2.30
2023-02-03T23:27:45.391Z,4.73
2023-02-03T23:30:14.770Z,6.23
2023-02-03T23:32:42.923Z,3.60
2023-02-03T23:35:28.463Z,2.60
2023-02-03T23:37:57.945Z,4.47
2023-02-03T23:40:25.957Z,2.67
2023-02-03T23:42:54.100Z,3.17
2023-02-03T23:45:22.276Z,3.10
2023-02-03T23:47:50.337Z,5.63
2023-02-03T23:50:20.104Z,4.63
2023-02-03T23:52:48.813Z,4.23
2023-02-03T23:55:20.869Z,6.10
2023-02-03T23:57:49.184Z,14.70
